sensor_id;sensor_type;location;lat;lon;timestamp;temperature;humidity
19522;DHT22;9905;52.126;5.596;2023-03-14T00:00:59;11.90;99.90
19522;DHT22;9905;52.126;5.596;2023-03-14T00:03:28;11.90;99.90
19522;DHT22;9905;52.126;5.596;2023-03-14T00:05:54;11.90;99.90
19522;DHT22;9905;52.126;5.596;2023-03-14T00:08:21;11.90;99.90
19522;DHT22;9905;52.126;5.596;2023-03-14T00:10:50;11.90;99.90
19522;DHT22;9905;52.126;5.596;2023-03-14T00:13:16;11.80;99.90
19522;DHT22;9905;52.126;5.596;2023-03-14T00:15:43;11.80;99.90
19522;DHT22;9905;52.126;5.596;2023-03-14T00:18:11;11.70;99.90
19522;DHT22;9905;52.126;5.596;2023-03-14T00:20:38;11.70;99.90
19522;DHT22;9905;52.126;5.596;2023-03-14T00:23:05;11.70;99.90
19522;DHT22;9905;52.126;5.596;2023-03-14T00:25:31;11.60;99.90
19522;DHT22;9905;52.126;5.596;2023-03-14T00:27:58;11.60;99.90
19522;DHT22;9905;52.126;5.596;2023-03-14T00:30:25;11.60;99.90
19522;DHT22;9905;52.126;5.596;2023-03-14T00:32:52;11.60;99.90
19522;DHT22;9905;52.126;5.596;2023-03-14T00:35:20;11.50;99.90
19522;DHT22;9905;52.126;5.596;2023-03-14T00:37:46;11.50;99.90
19522;DHT22;9905;52.126;5.596;2023-03-14T00:40:13;11.50;99.90
19522;DHT22;9905;52.126;5.596;2023-03-14T00:42:40;11.50;99.90
19522;DHT22;9905;52.126;5.596;2023-03-14T00:45:08;11.50;99.90
19522;DHT22;9905;52.126;5.596;2023-03-14T00:47:35;11.50;99.90
19522;DHT22;9905;52.126;5.596;2023-03-14T00:50:02;11.50;99.90
19522;DHT22;9905;52.126;5.596;2023-03-14T00:52:30;11.40;99.90
19522;DHT22;9905;52.126;5.596;2023-03-14T00:54:57;11.40;99.90
19522;DHT22;9905;52.126;5.596;2023-03-14T00:57:24;11.40;99.90
19522;DHT22;9905;52.126;5.596;2023-03-14T00:59:51;11.30;99.90
19522;DHT22;9905;52.126;5.596;2023-03-14T01:02:18;11.30;99.90
19522;DHT22;9905;52.126;5.596;2023-03-14T01:04:47;11.40;99.90
19522;DHT22;9905;52.126;5.596;2023-03-14T01:07:14;11.40;99.90
19522;DHT22;9905;52.126;5.596;2023-03-14T01:09:42;11.30;99.90
19522;DHT22;9905;52.126;5.596;2023-03-14T01:12:09;11.30;99.90
19522;DHT22;9905;52.126;5.596;2023-03-14T01:14:35;11.30;99.90
19522;DHT22;9905;52.126;5.596;2023-03-14T01:17:02;11.30;99.90
19522;DHT22;9905;52.126;5.596;2023-03-14T01:19:29;11.30;99.90
19522;DHT22;9905;52.126;5.596;2023-03-14T01:21:55;11.20;99.90
19522;DHT22;9905;52.126;5.596;2023-03-14T01:24:22;11.20;99.90
19522;DHT22;9905;52.126;5.596;2023-03-14T01:26:50;11.10;99.90
19522;DHT22;9905;52.126;5.596;2023-03-14T01:29:17;11.10;99.90
19522;DHT22;9905;52.126;5.596;2023-03-14T01:31:44;11.00;99.90
19522;DHT22;9905;52.126;5.596;2023-03-14T01:34:10;10.90;99.90
19522;DHT22;9905;52.126;5.596;2023-03-14T01:36:37;10.80;99.90
19522;DHT22;9905;52.126;5.596;2023-03-14T01:39:04;10.70;99.90
19522;DHT22;9905;52.126;5.596;2023-03-14T01:41:31;10.60;99.90
19522;DHT22;9905;52.126;5.596;2023-03-14T01:43:59;10.50;99.90
19522;DHT22;9905;52.126;5.596;2023-03-14T01:46:34;10.40;99.90
19522;DHT22;9905;52.126;5.596;2023-03-14T01:49:10;10.40;99.90
19522;DHT22;9905;52.126;5.596;2023-03-14T01:51:42;10.20;99.90
19522;DHT22;9905;52.126;5.596;2023-03-14T01:54:14;10.20;99.90
19522;DHT22;9905;52.126;5.596;2023-03-14T01:56:45;10.10;99.90
19522;DHT22;9905;52.126;5.596;2023-03-14T01:59:14;10.10;99.90
19522;DHT22;9905;52.126;5.596;2023-03-14T02:01:42;10.00;99.90
19522;DHT22;9905;52.126;5.596;2023-03-14T02:04:10;10.00;99.90
19522;DHT22;9905;52.126;5.596;2023-03-14T02:06:44;10.00;99.90
19522;DHT22;9905;52.126;5.596;2023-03-14T02:09:13;9.90;99.90
19522;DHT22;9905;52.126;5.596;2023-03-14T02:11:40;9.90;99.90
19522;DHT22;9905;52.126;5.596;2023-03-14T02:14:07;9.90;99.90
19522;DHT22;9905;52.126;5.596;2023-03-14T02:16:37;9.90;99.90
19522;DHT22;9905;52.126;5.596;2023-03-14T02:19:05;9.80;99.90
19522;DHT22;9905;52.126;5.596;2023-03-14T02:21:42;9.80;99.90
19522;DHT22;9905;52.126;5.596;2023-03-14T02:24:17;9.80;99.90
19522;DHT22;9905;52.126;5.596;2023-03-14T02:27:10;9.80;99.90
19522;DHT22;9905;52.126;5.596;2023-03-14T02:29:41;9.70;99.90
19522;DHT22;9905;52.126;5.596;2023-03-14T02:32:10;9.80;99.90
19522;DHT22;9905;52.126;5.596;2023-03-14T02:34:38;9.80;99.90
19522;DHT22;9905;52.126;5.596;2023-03-14T02:37:05;9.80;99.90
19522;DHT22;9905;52.126;5.596;2023-03-14T02:39:35;9.80;99.90
19522;DHT22;9905;52.126;5.596;2023-03-14T02:42:03;9.80;99.90
19522;DHT22;9905;52.126;5.596;2023-03-14T02:44:31;9.70;99.90
19522;DHT22;9905;52.126;5.596;2023-03-14T02:46:58;9.70;99.90
19522;DHT22;9905;52.126;5.596;2023-03-14T02:49:25;9.70;99.90
19522;DHT22;9905;52.126;5.596;2023-03-14T02:51:53;9.70;99.90
19522;DHT22;9905;52.126;5.596;2023-03-14T02:54:20;9.70;99.90
19522;DHT22;9905;52.126;5.596;2023-03-14T02:56:47;9.70;99.90
19522;DHT22;9905;52.126;5.596;2023-03-14T02:59:14;9.60;99.90
19522;DHT22;9905;52.126;5.596;2023-03-14T03:01:42;9.60;99.90
19522;DHT22;9905;52.126;5.596;2023-03-14T03:04:09;9.70;99.90
19522;DHT22;9905;52.126;5.596;2023-03-14T03:06:35;9.60;99.90
19522;DHT22;9905;52.126;5.596;2023-03-14T03:09:02;9.70;99.90
19522;DHT22;9905;52.126;5.596;2023-03-14T03:11:29;9.60;99.90
19522;DHT22;9905;52.126;5.596;2023-03-14T03:13:57;9.70;99.90
19522;DHT22;9905;52.126;5.596;2023-03-14T03:16:23;9.70;99.90
19522;DHT22;9905;52.126;5.596;2023-03-14T03:18:51;9.70;99.90
19522;DHT22;9905;52.126;5.596;2023-03-14T03:21:18;9.70;99.90
19522;DHT22;9905;52.126;5.596;2023-03-14T03:23:48;9.70;99.90
19522;DHT22;9905;52.126;5.596;2023-03-14T03:26:15;9.70;99.90
19522;DHT22;9905;52.126;5.596;2023-03-14T03:28:42;9.70;99.90
19522;DHT22;9905;52.126;5.596;2023-03-14T03:31:09;9.70;99.90
19522;DHT22;9905;52.126;5.596;2023-03-14T03:33:37;9.70;99.90
19522;DHT22;9905;52.126;5.596;2023-03-14T03:36:06;9.70;99.90
19522;DHT22;9905;52.126;5.596;2023-03-14T03:38:33;9.70;99.90
19522;DHT22;9905;52.126;5.596;2023-03-14T03:41:02;9.80;99.90
19522;DHT22;9905;52.126;5.596;2023-03-14T03:43:30;9.80;99.90
19522;DHT22;9905;52.126;5.596;2023-03-14T03:45:57;9.80;99.90
19522;DHT22;9905;52.126;5.596;2023-03-14T03:48:23;9.80;99.90
19522;DHT22;9905;52.126;5.596;2023-03-14T03:50:50;9.80;99.90
19522;DHT22;9905;52.126;5.596;2023-03-14T03:53:18;9.70;99.90
19522;DHT22;9905;52.126;5.596;2023-03-14T03:55:45;9.80;99.90
19522;DHT22;9905;52.126;5.596;2023-03-14T03:58:12;9.70;99.90
19522;DHT22;9905;52.126;5.596;2023-03-14T04:00:38;9.80;99.90
19522;DHT22;9905;52.126;5.596;2023-03-14T04:03:05;9.70;99.90
19522;DHT22;9905;52.126;5.596;2023-03-14T04:05:32;9.70;99.90
19522;DHT22;9905;52.126;5.596;2023-03-14T04:07:59;9.80;99.90
19522;DHT22;9905;52.126;5.596;2023-03-14T04:10:28;9.80;99.90
19522;DHT22;9905;52.126;5.596;2023-03-14T04:12:54;9.80;99.90
19522;DHT22;9905;52.126;5.596;2023-03-14T04:15:21;9.80;99.90
19522;DHT22;9905;52.126;5.596;2023-03-14T04:17:48;9.80;99.90
19522;DHT22;9905;52.126;5.596;2023-03-14T04:20:15;9.80;99.90
19522;DHT22;9905;52.126;5.596;2023-03-14T04:22:42;9.80;99.90
19522;DHT22;9905;52.126;5.596;2023-03-14T04:25:09;9.90;99.90
19522;DHT22;9905;52.126;5.596;2023-03-14T04:27:37;9.80;99.90
19522;DHT22;9905;52.126;5.596;2023-03-14T04:30:04;9.90;99.90
19522;DHT22;9905;52.126;5.596;2023-03-14T04:32:31;9.90;99.90
19522;DHT22;9905;52.126;5.596;2023-03-14T04:34:58;10.00;99.90
19522;DHT22;9905;52.126;5.596;2023-03-14T04:37:25;9.90;99.90
19522;DHT22;9905;52.126;5.596;2023-03-14T04:39:51;9.90;99.90
19522;DHT22;9905;52.126;5.596;2023-03-14T04:42:18;9.90;99.90
19522;DHT22;9905;52.126;5.596;2023-03-14T04:44:46;9.90;99.90
19522;DHT22;9905;52.126;5.596;2023-03-14T04:47:14;9.90;99.90
19522;DHT22;9905;52.126;5.596;2023-03-14T04:49:41;9.90;99.90
19522;DHT22;9905;52.126;5.596;2023-03-14T04:52:08;10.00;99.90
19522;DHT22;9905;52.126;5.596;2023-03-14T04:54:35;10.00;99.90
19522;DHT22;9905;52.126;5.596;2023-03-14T04:57:02;10.00;99.90
19522;DHT22;9905;52.126;5.596;2023-03-14T04:59:28;9.90;99.90
19522;DHT22;9905;52.126;5.596;2023-03-14T05:01:57;10.00;99.90
19522;DHT22;9905;52.126;5.596;2023-03-14T05:04:23;10.00;99.90
19522;DHT22;9905;52.126;5.596;2023-03-14T05:06:50;10.00;99.90
19522;DHT22;9905;52.126;5.596;2023-03-14T05:09:17;10.00;99.90
19522;DHT22;9905;52.126;5.596;2023-03-14T05:11:44;10.00;99.90
19522;DHT22;9905;52.126;5.596;2023-03-14T05:14:10;10.00;99.90
19522;DHT22;9905;52.126;5.596;2023-03-14T05:16:37;10.00;99.90
19522;DHT22;9905;52.126;5.596;2023-03-14T05:19:05;10.00;99.90
19522;DHT22;9905;52.126;5.596;2023-03-14T05:21:32;10.00;99.90
19522;DHT22;9905;52.126;5.596;2023-03-14T05:23:58;10.00;99.90
19522;DHT22;9905;52.126;5.596;2023-03-14T05:26:25;9.90;99.90
19522;DHT22;9905;52.126;5.596;2023-03-14T05:28:52;9.80;99.90
19522;DHT22;9905;52.126;5.596;2023-03-14T05:31:19;9.80;99.90
19522;DHT22;9905;52.126;5.596;2023-03-14T05:33:45;9.80;99.90
19522;DHT22;9905;52.126;5.596;2023-03-14T05:36:13;9.80;99.90
19522;DHT22;9905;52.126;5.596;2023-03-14T05:38:40;9.70;99.90
19522;DHT22;9905;52.126;5.596;2023-03-14T05:41:07;9.70;99.90
19522;DHT22;9905;52.126;5.596;2023-03-14T05:43:34;9.70;99.90
19522;DHT22;9905;52.126;5.596;2023-03-14T05:46:01;9.60;99.90
19522;DHT22;9905;52.126;5.596;2023-03-14T05:48:28;9.60;99.90
19522;DHT22;9905;52.126;5.596;2023-03-14T05:50:55;9.60;99.90
19522;DHT22;9905;52.126;5.596;2023-03-14T05:53:23;9.60;99.90
19522;DHT22;9905;52.126;5.596;2023-03-14T05:55:51;9.60;99.90
19522;DHT22;9905;52.126;5.596;2023-03-14T05:58:18;9.60;99.90
19522;DHT22;9905;52.126;5.596;2023-03-14T06:00:45;9.60;99.90
19522;DHT22;9905;52.126;5.596;2023-03-14T06:03:12;9.50;99.90
19522;DHT22;9905;52.126;5.596;2023-03-14T06:05:39;9.50;99.90
19522;DHT22;9905;52.126;5.596;2023-03-14T06:08:06;9.50;99.90
19522;DHT22;9905;52.126;5.596;2023-03-14T06:10:34;9.50;99.90
19522;DHT22;9905;52.126;5.596;2023-03-14T06:13:02;9.50;99.90
19522;DHT22;9905;52.126;5.596;2023-03-14T06:15:28;9.50;99.90
19522;DHT22;9905;52.126;5.596;2023-03-14T06:17:55;9.50;99.90
19522;DHT22;9905;52.126;5.596;2023-03-14T06:20:22;9.50;99.90
19522;DHT22;9905;52.126;5.596;2023-03-14T06:22:49;9.50;99.90
19522;DHT22;9905;52.126;5.596;2023-03-14T06:25:16;9.50;99.90
19522;DHT22;9905;52.126;5.596;2023-03-14T06:27:44;9.50;99.90
19522;DHT22;9905;52.126;5.596;2023-03-14T06:30:11;9.50;99.90
19522;DHT22;9905;52.126;5.596;2023-03-14T06:32:38;9.50;99.90
19522;DHT22;9905;52.126;5.596;2023-03-14T06:35:05;9.50;99.90
19522;DHT22;9905;52.126;5.596;2023-03-14T06:37:32;9.50;99.90
19522;DHT22;9905;52.126;5.596;2023-03-14T06:39:59;9.50;99.90
19522;DHT22;9905;52.126;5.596;2023-03-14T06:42:25;9.60;99.90
19522;DHT22;9905;52.126;5.596;2023-03-14T06:44:53;9.60;99.90
19522;DHT22;9905;52.126;5.596;2023-03-14T06:47:20;9.60;99.90
19522;DHT22;9905;52.126;5.596;2023-03-14T06:49:47;9.60;99.90
19522;DHT22;9905;52.126;5.596;2023-03-14T06:52:14;9.60;99.90
19522;DHT22;9905;52.126;5.596;2023-03-14T06:54:40;9.60;99.90
19522;DHT22;9905;52.126;5.596;2023-03-14T06:57:07;9.60;99.90
19522;DHT22;9905;52.126;5.596;2023-03-14T06:59:34;9.60;99.90
19522;DHT22;9905;52.126;5.596;2023-03-14T07:02:02;9.60;99.90
19522;DHT22;9905;52.126;5.596;2023-03-14T07:04:29;9.60;99.90
19522;DHT22;9905;52.126;5.596;2023-03-14T07:06:55;9.60;99.90
19522;DHT22;9905;52.126;5.596;2023-03-14T07:09:22;9.30;99.90
19522;DHT22;9905;52.126;5.596;2023-03-14T07:11:49;9.10;99.90
19522;DHT22;9905;52.126;5.596;2023-03-14T07:14:16;9.00;99.90
19522;DHT22;9905;52.126;5.596;2023-03-14T07:16:42;8.90;99.90
19522;DHT22;9905;52.126;5.596;2023-03-14T07:19:11;8.80;99.90
19522;DHT22;9905;52.126;5.596;2023-03-14T07:21:38;8.70;99.90
19522;DHT22;9905;52.126;5.596;2023-03-14T07:24:05;8.60;99.90
19522;DHT22;9905;52.126;5.596;2023-03-14T07:26:32;8.60;99.90
19522;DHT22;9905;52.126;5.596;2023-03-14T07:28:59;8.50;99.90
19522;DHT22;9905;52.126;5.596;2023-03-14T07:31:28;8.40;99.90
19522;DHT22;9905;52.126;5.596;2023-03-14T07:33:55;8.40;99.90
19522;DHT22;9905;52.126;5.596;2023-03-14T07:36:23;8.40;99.90
19522;DHT22;9905;52.126;5.596;2023-03-14T07:38:50;8.30;99.90
19522;DHT22;9905;52.126;5.596;2023-03-14T07:41:17;8.30;99.90
19522;DHT22;9905;52.126;5.596;2023-03-14T07:43:46;8.30;99.90
19522;DHT22;9905;52.126;5.596;2023-03-14T07:46:13;8.30;99.90
19522;DHT22;9905;52.126;5.596;2023-03-14T07:48:39;8.20;99.90
19522;DHT22;9905;52.126;5.596;2023-03-14T07:51:06;8.20;99.90
19522;DHT22;9905;52.126;5.596;2023-03-14T07:53:35;8.20;99.90
19522;DHT22;9905;52.126;5.596;2023-03-14T07:56:01;8.20;99.90
19522;DHT22;9905;52.126;5.596;2023-03-14T07:58:28;8.10;99.90
19522;DHT22;9905;52.126;5.596;2023-03-14T08:00:55;8.10;99.90
19522;DHT22;9905;52.126;5.596;2023-03-14T08:03:21;8.10;99.90
19522;DHT22;9905;52.126;5.596;2023-03-14T08:05:49;8.00;99.90
19522;DHT22;9905;52.126;5.596;2023-03-14T08:08:17;8.00;99.90
19522;DHT22;9905;52.126;5.596;2023-03-14T08:10:45;8.00;99.90
19522;DHT22;9905;52.126;5.596;2023-03-14T08:13:13;7.90;99.90
19522;DHT22;9905;52.126;5.596;2023-03-14T08:15:40;7.90;99.90
19522;DHT22;9905;52.126;5.596;2023-03-14T08:18:07;7.80;99.90
19522;DHT22;9905;52.126;5.596;2023-03-14T08:20:35;7.70;99.90
19522;DHT22;9905;52.126;5.596;2023-03-14T08:23:02;7.70;99.90
19522;DHT22;9905;52.126;5.596;2023-03-14T08:25:30;7.60;99.90
19522;DHT22;9905;52.126;5.596;2023-03-14T08:27:58;7.60;99.90
19522;DHT22;9905;52.126;5.596;2023-03-14T08:30:25;7.40;99.90
19522;DHT22;9905;52.126;5.596;2023-03-14T08:32:52;7.30;99.90
19522;DHT22;9905;52.126;5.596;2023-03-14T08:35:19;7.40;99.90
19522;DHT22;9905;52.126;5.596;2023-03-14T08:37:46;7.40;99.90
19522;DHT22;9905;52.126;5.596;2023-03-14T08:40:13;7.30;99.90
19522;DHT22;9905;52.126;5.596;2023-03-14T08:42:41;7.40;99.90
19522;DHT22;9905;52.126;5.596;2023-03-14T08:45:11;7.40;99.90
19522;DHT22;9905;52.126;5.596;2023-03-14T08:47:38;7.50;99.90
19522;DHT22;9905;52.126;5.596;2023-03-14T08:50:07;7.50;99.90
19522;DHT22;9905;52.126;5.596;2023-03-14T08:52:34;7.50;99.90
19522;DHT22;9905;52.126;5.596;2023-03-14T08:55:03;7.50;99.90
19522;DHT22;9905;52.126;5.596;2023-03-14T08:57:30;7.60;99.90
19522;DHT22;9905;52.126;5.596;2023-03-14T08:59:57;7.60;99.90
19522;DHT22;9905;52.126;5.596;2023-03-14T09:02:26;7.60;99.90
19522;DHT22;9905;52.126;5.596;2023-03-14T09:04:53;7.60;99.90
19522;DHT22;9905;52.126;5.596;2023-03-14T09:07:20;7.80;99.90
19522;DHT22;9905;52.126;5.596;2023-03-14T09:09:47;7.80;99.90
19522;DHT22;9905;52.126;5.596;2023-03-14T09:12:13;7.80;99.90
19522;DHT22;9905;52.126;5.596;2023-03-14T09:14:40;7.70;99.90
19522;DHT22;9905;52.126;5.596;2023-03-14T09:17:07;7.80;99.90
19522;DHT22;9905;52.126;5.596;2023-03-14T09:19:35;7.80;99.90
19522;DHT22;9905;52.126;5.596;2023-03-14T09:22:02;7.80;99.90
19522;DHT22;9905;52.126;5.596;2023-03-14T09:24:29;7.80;99.90
19522;DHT22;9905;52.126;5.596;2023-03-14T09:26:56;7.90;99.90
19522;DHT22;9905;52.126;5.596;2023-03-14T09:29:23;8.00;99.90
19522;DHT22;9905;52.126;5.596;2023-03-14T09:31:50;7.90;99.90
19522;DHT22;9905;52.126;5.596;2023-03-14T09:34:17;8.00;99.90
19522;DHT22;9905;52.126;5.596;2023-03-14T09:36:45;8.00;99.90
19522;DHT22;9905;52.126;5.596;2023-03-14T09:39:12;8.00;99.90
19522;DHT22;9905;52.126;5.596;2023-03-14T09:41:41;8.00;99.90
19522;DHT22;9905;52.126;5.596;2023-03-14T09:44:12;8.00;99.90
19522;DHT22;9905;52.126;5.596;2023-03-14T09:46:43;8.10;99.90
19522;DHT22;9905;52.126;5.596;2023-03-14T09:49:13;8.10;99.90
19522;DHT22;9905;52.126;5.596;2023-03-14T09:51:45;8.10;99.90
19522;DHT22;9905;52.126;5.596;2023-03-14T09:54:30;8.10;99.90
19522;DHT22;9905;52.126;5.596;2023-03-14T09:56:57;8.10;99.90
19522;DHT22;9905;52.126;5.596;2023-03-14T09:59:25;8.10;99.90
19522;DHT22;9905;52.126;5.596;2023-03-14T10:01:52;8.00;99.90
19522;DHT22;9905;52.126;5.596;2023-03-14T10:04:22;8.10;99.90
19522;DHT22;9905;52.126;5.596;2023-03-14T10:06:51;7.90;99.90
19522;DHT22;9905;52.126;5.596;2023-03-14T10:09:20;8.00;99.90
19522;DHT22;9905;52.126;5.596;2023-03-14T10:11:53;8.10;99.90
19522;DHT22;9905;52.126;5.596;2023-03-14T10:14:30;8.10;99.90
19522;DHT22;9905;52.126;5.596;2023-03-14T10:17:05;8.10;99.90
19522;DHT22;9905;52.126;5.596;2023-03-14T10:19:32;8.10;99.90
19522;DHT22;9905;52.126;5.596;2023-03-14T10:22:04;8.10;99.90
19522;DHT22;9905;52.126;5.596;2023-03-14T10:24:32;8.10;99.90
19522;DHT22;9905;52.126;5.596;2023-03-14T10:27:00;8.10;99.90
19522;DHT22;9905;52.126;5.596;2023-03-14T10:29:28;8.00;99.90
19522;DHT22;9905;52.126;5.596;2023-03-14T10:31:58;8.00;99.90
19522;DHT22;9905;52.126;5.596;2023-03-14T10:34:29;7.70;99.90
19522;DHT22;9905;52.126;5.596;2023-03-14T10:36:57;7.60;99.90
19522;DHT22;9905;52.126;5.596;2023-03-14T10:39:34;7.60;99.90
19522;DHT22;9905;52.126;5.596;2023-03-14T10:42:09;7.70;99.90
19522;DHT22;9905;52.126;5.596;2023-03-14T10:44:39;7.80;99.90
19522;DHT22;9905;52.126;5.596;2023-03-14T10:47:06;7.90;99.90
19522;DHT22;9905;52.126;5.596;2023-03-14T10:49:35;7.90;99.90
19522;DHT22;9905;52.126;5.596;2023-03-14T10:52:14;7.90;99.90
19522;DHT22;9905;52.126;5.596;2023-03-14T10:54:47;8.00;99.90
19522;DHT22;9905;52.126;5.596;2023-03-14T10:57:14;8.10;99.90
19522;DHT22;9905;52.126;5.596;2023-03-14T10:59:42;8.00;99.90
19522;DHT22;9905;52.126;5.596;2023-03-14T11:02:21;7.90;99.90
19522;DHT22;9905;52.126;5.596;2023-03-14T11:05:01;7.70;99.90
19522;DHT22;9905;52.126;5.596;2023-03-14T11:07:34;7.60;99.90
19522;DHT22;9905;52.126;5.596;2023-03-14T11:10:11;7.70;99.90
19522;DHT22;9905;52.126;5.596;2023-03-14T11:12:48;7.70;99.90
19522;DHT22;9905;52.126;5.596;2023-03-14T11:15:22;7.80;99.90
19522;DHT22;9905;52.126;5.596;2023-03-14T11:18:15;7.70;99.90
19522;DHT22;9905;52.126;5.596;2023-03-14T11:20:46;7.70;99.90
19522;DHT22;9905;52.126;5.596;2023-03-14T11:23:21;7.70;99.90
19522;DHT22;9905;52.126;5.596;2023-03-14T11:25:56;7.70;99.90
19522;DHT22;9905;52.126;5.596;2023-03-14T11:28:29;7.70;99.90
19522;DHT22;9905;52.126;5.596;2023-03-14T11:31:06;7.80;99.90
19522;DHT22;9905;52.126;5.596;2023-03-14T11:33:38;7.80;99.90
19522;DHT22;9905;52.126;5.596;2023-03-14T11:36:07;7.90;99.90
19522;DHT22;9905;52.126;5.596;2023-03-14T11:38:38;8.00;99.90
19522;DHT22;9905;52.126;5.596;2023-03-14T11:41:10;8.20;99.90
19522;DHT22;9905;52.126;5.596;2023-03-14T11:43:40;8.10;99.90
19522;DHT22;9905;52.126;5.596;2023-03-14T11:46:13;8.10;99.90
19522;DHT22;9905;52.126;5.596;2023-03-14T11:48:45;8.30;99.90
19522;DHT22;9905;52.126;5.596;2023-03-14T11:51:17;8.40;99.90
19522;DHT22;9905;52.126;5.596;2023-03-14T11:53:54;8.40;99.90
19522;DHT22;9905;52.126;5.596;2023-03-14T11:56:28;8.50;99.90
19522;DHT22;9905;52.126;5.596;2023-03-14T11:58:59;8.50;99.90
19522;DHT22;9905;52.126;5.596;2023-03-14T12:01:34;8.60;99.90
19522;DHT22;9905;52.126;5.596;2023-03-14T12:04:11;8.70;99.90
19522;DHT22;9905;52.126;5.596;2023-03-14T12:06:46;8.60;99.90
19522;DHT22;9905;52.126;5.596;2023-03-14T12:09:14;8.60;99.90
19522;DHT22;9905;52.126;5.596;2023-03-14T12:11:46;8.60;99.90
19522;DHT22;9905;52.126;5.596;2023-03-14T12:14:20;8.60;99.90
19522;DHT22;9905;52.126;5.596;2023-03-14T12:16:48;8.50;99.90
19522;DHT22;9905;52.126;5.596;2023-03-14T12:19:37;8.60;99.90
19522;DHT22;9905;52.126;5.596;2023-03-14T12:22:23;8.50;99.90
19522;DHT22;9905;52.126;5.596;2023-03-14T12:24:54;8.40;99.90
19522;DHT22;9905;52.126;5.596;2023-03-14T12:27:46;8.50;99.90
19522;DHT22;9905;52.126;5.596;2023-03-14T12:30:23;8.50;99.90
19522;DHT22;9905;52.126;5.596;2023-03-14T12:33:12;8.50;99.90
19522;DHT22;9905;52.126;5.596;2023-03-14T12:35:40;8.50;99.90
19522;DHT22;9905;52.126;5.596;2023-03-14T12:38:10;8.50;99.90
19522;DHT22;9905;52.126;5.596;2023-03-14T12:40:45;8.60;99.90
19522;DHT22;9905;52.126;5.596;2023-03-14T12:43:26;8.70;99.90
19522;DHT22;9905;52.126;5.596;2023-03-14T12:46:21;8.80;99.90
19522;DHT22;9905;52.126;5.596;2023-03-14T12:48:49;8.60;99.90
19522;DHT22;9905;52.126;5.596;2023-03-14T12:51:18;8.70;99.90
19522;DHT22;9905;52.126;5.596;2023-03-14T12:54:09;8.70;99.90
19522;DHT22;9905;52.126;5.596;2023-03-14T12:56:51;8.90;99.90
19522;DHT22;9905;52.126;5.596;2023-03-14T12:59:31;8.70;99.90
19522;DHT22;9905;52.126;5.596;2023-03-14T13:02:01;8.80;99.90
19522;DHT22;9905;52.126;5.596;2023-03-14T13:04:32;8.80;99.90
19522;DHT22;9905;52.126;5.596;2023-03-14T13:07:01;8.60;99.90
19522;DHT22;9905;52.126;5.596;2023-03-14T13:09:45;8.60;99.90
19522;DHT22;9905;52.126;5.596;2023-03-14T13:12:17;8.60;99.90
19522;DHT22;9905;52.126;5.596;2023-03-14T13:14:47;8.70;99.90
19522;DHT22;9905;52.126;5.596;2023-03-14T13:17:15;8.90;99.90
19522;DHT22;9905;52.126;5.596;2023-03-14T13:19:50;8.90;99.90
19522;DHT22;9905;52.126;5.596;2023-03-14T13:22:23;8.90;99.90
19522;DHT22;9905;52.126;5.596;2023-03-14T13:24:57;8.90;99.90
19522;DHT22;9905;52.126;5.596;2023-03-14T13:27:24;8.90;99.90
19522;DHT22;9905;52.126;5.596;2023-03-14T13:29:53;9.00;99.90
19522;DHT22;9905;52.126;5.596;2023-03-14T13:32:22;8.90;99.90
19522;DHT22;9905;52.126;5.596;2023-03-14T13:34:52;9.00;99.90
19522;DHT22;9905;52.126;5.596;2023-03-14T13:37:22;9.10;99.90
19522;DHT22;9905;52.126;5.596;2023-03-14T13:39:50;9.00;99.90
19522;DHT22;9905;52.126;5.596;2023-03-14T13:42:18;9.00;99.90
19522;DHT22;9905;52.126;5.596;2023-03-14T13:44:46;8.90;99.90
19522;DHT22;9905;52.126;5.596;2023-03-14T13:47:15;9.00;99.90
19522;DHT22;9905;52.126;5.596;2023-03-14T13:49:43;9.20;99.90
19522;DHT22;9905;52.126;5.596;2023-03-14T13:52:32;9.20;99.90
19522;DHT22;9905;52.126;5.596;2023-03-14T13:55:02;9.30;99.90
19522;DHT22;9905;52.126;5.596;2023-03-14T13:57:43;9.30;99.90
19522;DHT22;9905;52.126;5.596;2023-03-14T14:00:18;9.30;99.90
19522;DHT22;9905;52.126;5.596;2023-03-14T14:02:47;9.20;99.90
19522;DHT22;9905;52.126;5.596;2023-03-14T14:05:14;9.00;99.90
19522;DHT22;9905;52.126;5.596;2023-03-14T14:07:43;8.80;99.90
19522;DHT22;9905;52.126;5.596;2023-03-14T14:10:11;8.70;99.90
19522;DHT22;9905;52.126;5.596;2023-03-14T14:12:42;8.70;99.90
19522;DHT22;9905;52.126;5.596;2023-03-14T14:15:17;8.70;99.90
19522;DHT22;9905;52.126;5.596;2023-03-14T14:17:50;8.80;99.90
19522;DHT22;9905;52.126;5.596;2023-03-14T14:20:23;8.80;99.90
19522;DHT22;9905;52.126;5.596;2023-03-14T14:22:50;8.90;99.90
19522;DHT22;9905;52.126;5.596;2023-03-14T14:25:18;8.70;99.90
19522;DHT22;9905;52.126;5.596;2023-03-14T14:27:48;8.70;99.90
19522;DHT22;9905;52.126;5.596;2023-03-14T14:30:29;8.70;99.90
19522;DHT22;9905;52.126;5.596;2023-03-14T14:33:17;8.60;99.90
19522;DHT22;9905;52.126;5.596;2023-03-14T14:35:51;8.50;99.90
19522;DHT22;9905;52.126;5.596;2023-03-14T14:38:19;8.30;99.90
19522;DHT22;9905;52.126;5.596;2023-03-14T14:40:49;8.30;99.90
19522;DHT22;9905;52.126;5.596;2023-03-14T14:43:19;8.30;99.90
19522;DHT22;9905;52.126;5.596;2023-03-14T14:45:49;8.30;99.90
19522;DHT22;9905;52.126;5.596;2023-03-14T14:48:21;8.30;99.90
19522;DHT22;9905;52.126;5.596;2023-03-14T14:51:06;8.30;99.90
19522;DHT22;9905;52.126;5.596;2023-03-14T14:53:37;8.40;99.90
19522;DHT22;9905;52.126;5.596;2023-03-14T14:56:08;8.30;99.90
19522;DHT22;9905;52.126;5.596;2023-03-14T14:58:44;8.30;99.90
19522;DHT22;9905;52.126;5.596;2023-03-14T15:01:14;8.30;99.90
19522;DHT22;9905;52.126;5.596;2023-03-14T15:03:44;8.30;99.90
19522;DHT22;9905;52.126;5.596;2023-03-14T15:06:13;8.00;99.90
19522;DHT22;9905;52.126;5.596;2023-03-14T15:08:40;8.00;99.90
19522;DHT22;9905;52.126;5.596;2023-03-14T15:11:09;8.00;99.90
19522;DHT22;9905;52.126;5.596;2023-03-14T15:13:42;8.00;99.90
19522;DHT22;9905;52.126;5.596;2023-03-14T15:16:09;7.80;99.90
19522;DHT22;9905;52.126;5.596;2023-03-14T15:18:36;7.70;99.90
19522;DHT22;9905;52.126;5.596;2023-03-14T15:21:05;7.70;99.90
19522;DHT22;9905;52.126;5.596;2023-03-14T15:23:32;7.50;99.90
19522;DHT22;9905;52.126;5.596;2023-03-14T15:25:59;7.50;99.90
19522;DHT22;9905;52.126;5.596;2023-03-14T15:28:26;7.30;99.90
19522;DHT22;9905;52.126;5.596;2023-03-14T15:30:56;7.30;99.90
19522;DHT22;9905;52.126;5.596;2023-03-14T15:33:23;7.20;99.90
19522;DHT22;9905;52.126;5.596;2023-03-14T15:35:50;7.30;99.90
19522;DHT22;9905;52.126;5.596;2023-03-14T15:38:20;7.30;99.90
19522;DHT22;9905;52.126;5.596;2023-03-14T15:40:48;7.40;99.90
19522;DHT22;9905;52.126;5.596;2023-03-14T15:43:15;7.40;99.90
19522;DHT22;9905;52.126;5.596;2023-03-14T15:45:42;7.40;99.90
19522;DHT22;9905;52.126;5.596;2023-03-14T15:48:14;7.40;99.90
19522;DHT22;9905;52.126;5.596;2023-03-14T15:50:41;7.40;99.90
19522;DHT22;9905;52.126;5.596;2023-03-14T15:53:08;7.40;99.90
19522;DHT22;9905;52.126;5.596;2023-03-14T15:55:36;7.20;99.90
19522;DHT22;9905;52.126;5.596;2023-03-14T15:58:03;7.20;99.90
19522;DHT22;9905;52.126;5.596;2023-03-14T16:00:30;7.10;99.90
19522;DHT22;9905;52.126;5.596;2023-03-14T16:02:57;7.10;99.90
19522;DHT22;9905;52.126;5.596;2023-03-14T16:05:24;7.10;99.90
19522;DHT22;9905;52.126;5.596;2023-03-14T16:07:51;7.00;99.90
19522;DHT22;9905;52.126;5.596;2023-03-14T16:10:17;7.00;99.90
19522;DHT22;9905;52.126;5.596;2023-03-14T16:12:45;6.90;99.90